Time;durP1;ratioP1;P1;durP2;ratioP2;P2;SDS_P1;SDS_P2;PMS_P1;PMS_P2;Temp;Humidity;BMP_temperature;BMP_pressure;BME280_temperature;BME280_humidity;BME280_pressure;Samples;Min_cycle;Max_cycle;Signal;HPM_P1;HPM_P2
2022/05/08 00:01:12;;;;;;;16.17;12.38;;;11.90;99.90;;;;;;5031638;28;20040;-72
2022/05/08 00:03:37;;;;;;;16.52;11.50;;;11.90;99.90;;;;;;5030375;28;20021;-71
2022/05/08 00:06:10;;;;;;;18.67;13.10;;;11.90;99.90;;;;;;5027759;28;20045;-71
2022/05/08 00:08:36;;;;;;;18.88;12.80;;;11.90;99.90;;;;;;5030902;28;20139;-71
2022/05/08 00:11:01;;;;;;;18.60;12.80;;;11.80;99.90;;;;;;5032124;28;20394;-71
2022/05/08 00:13:27;;;;;;;18.90;11.80;;;11.80;99.90;;;;;;5031626;28;20025;-71
2022/05/08 00:15:52;;;;;;;17.10;12.43;;;11.80;99.90;;;;;;5031225;28;20096;-71
2022/05/08 00:18:18;;;;;;;17.13;13.20;;;11.70;99.90;;;;;;5029503;28;20072;-71
2022/05/08 00:20:44;;;;;;;16.98;12.73;;;11.70;99.90;;;;;;5032106;28;20805;-71
2022/05/08 00:23:12;;;;;;;18.30;12.00;;;11.70;99.90;;;;;;5030456;28;20036;-71
2022/05/08 00:25:41;;;;;;;19.40;12.35;;;11.70;99.90;;;;;;5029633;28;20029;-71
2022/05/08 00:28:09;;;;;;;16.30;12.48;;;11.70;99.90;;;;;;5028625;28;20041;-71
2022/05/08 00:30:41;;;;;;;15.23;12.07;;;11.60;99.90;;;;;;5029015;28;20030;-71
2022/05/08 00:33:10;;;;;;;17.08;12.65;;;11.60;99.90;;;;;;5029427;28;20022;-71
2022/05/08 00:35:35;;;;;;;16.00;12.15;;;11.60;99.90;;;;;;5034999;28;20026;-72
2022/05/08 00:38:04;;;;;;;17.45;12.07;;;11.60;99.90;;;;;;5022919;28;20033;-71
2022/05/08 00:40:35;;;;;;;18.63;12.05;;;11.50;99.90;;;;;;5028881;28;20029;-71
2022/05/08 00:43:35;;;;;;;15.90;12.77;;;11.50;99.90;;;;;;5026675;28;20510;-71
2022/05/08 00:46:21;;;;;;;17.38;11.63;;;11.50;99.90;;;;;;5031851;28;20025;-71
2022/05/08 00:48:50;;;;;;;15.93;12.15;;;11.50;99.90;;;;;;5025766;28;20073;-71
2022/05/08 00:51:17;;;;;;;17.45;12.73;;;11.40;99.90;;;;;;5030136;28;20061;-70
2022/05/08 00:53:50;;;;;;;15.80;11.75;;;11.40;99.90;;;;;;5029622;28;20033;-72
2022/05/08 00:56:20;;;;;;;16.77;12.73;;;11.40;99.90;;;;;;5029113;28;20029;-71
2022/05/08 00:58:52;;;;;;;18.05;12.63;;;11.30;99.90;;;;;;5023857;28;20124;-71
2022/05/08 01:01:21;;;;;;;17.05;11.30;;;11.30;99.90;;;;;;5025363;28;20125;-72
2022/05/08 01:03:47;;;;;;;15.68;12.02;;;11.30;99.90;;;;;;5029699;28;20096;-71
2022/05/08 01:06:17;;;;;;;17.23;11.95;;;11.20;99.90;;;;;;5030857;28;20555;-72
2022/05/08 01:08:45;;;;;;;15.95;11.40;;;11.30;99.90;;;;;;5025741;28;20021;-71
2022/05/08 01:11:12;;;;;;;15.80;11.30;;;11.20;99.90;;;;;;5026379;28;20108;-72
2022/05/08 01:13:42;;;;;;;15.80;11.32;;;11.20;99.90;;;;;;5023769;28;20105;-71
2022/05/08 01:16:37;;;;;;;16.75;12.63;;;11.20;99.90;;;;;;5031357;28;20057;-71
2022/05/08 01:19:02;;;;;;;16.55;12.00;;;11.10;99.90;;;;;;5016078;28;20079;-71
2022/05/08 01:21:46;;;;;;;19.52;11.63;;;11.10;99.90;;;;;;5030358;28;20029;-70
2022/05/08 01:24:22;;;;;;;14.55;11.00;;;11.10;99.90;;;;;;5026031;28;20022;-72
2022/05/08 01:26:56;;;;;;;14.07;10.85;;;11.10;99.90;;;;;;5025333;28;20041;-72
2022/05/08 01:29:21;;;;;;;13.93;10.82;;;11.00;99.90;;;;;;5024770;28;20026;-71
2022/05/08 01:31:50;;;;;;;14.27;10.77;;;11.10;99.90;;;;;;5041648;28;20108;-70
2022/05/08 01:34:22;;;;;;;16.27;11.93;;;11.00;99.90;;;;;;5024777;28;20018;-70
2022/05/08 01:36:59;;;;;;;15.02;11.00;;;11.00;99.90;;;;;;5027009;28;20060;-71
2022/05/08 01:39:25;;;;;;;14.15;10.80;;;11.00;99.90;;;;;;5027673;28;20030;-70
2022/05/08 01:41:50;;;;;;;14.02;10.30;;;11.00;99.90;;;;;;5030885;28;20040;-70
2022/05/08 01:44:22;;;;;;;14.15;10.60;;;11.00;99.90;;;;;;5028161;28;20021;-71
2022/05/08 01:46:47;;;;;;;17.60;10.98;;;11.00;99.90;;;;;;5041117;28;20037;-72
2022/05/08 01:49:13;;;;;;;13.98;10.65;;;11.00;99.90;;;;;;5031444;28;20021;-72
2022/05/08 01:51:44;;;;;;;13.52;10.70;;;10.90;99.90;;;;;;5028866;28;20021;-72
2022/05/08 01:54:10;;;;;;;14.27;9.38;;;10.90;99.90;;;;;;5039854;28;20029;-72
2022/05/08 01:56:39;;;;;;;13.35;10.52;;;10.80;99.90;;;;;;5030678;28;20022;-72
2022/05/08 01:59:05;;;;;;;13.88;10.40;;;10.80;99.90;;;;;;5030152;28;20021;-72
2022/05/08 02:01:37;;;;;;;15.45;11.23;;;10.70;99.90;;;;;;5027086;28;20034;-72
2022/05/08 02:04:02;;;;;;;15.93;12.48;;;10.70;99.90;;;;;;5032409;28;20037;-72
2022/05/08 02:06:28;;;;;;;16.85;11.95;;;10.70;99.90;;;;;;5030256;28;20720;-73
2022/05/08 02:08:53;;;;;;;17.10;12.52;;;10.60;99.90;;;;;;5029347;28;20062;-73
2022/05/08 02:11:19;;;;;;;18.48;12.40;;;10.60;99.90;;;;;;5027262;28;20068;-73
2022/05/08 02:13:50;;;;;;;18.67;13.10;;;10.50;99.90;;;;;;5029602;28;20025;-72
2022/05/08 02:16:22;;;;;;;19.60;12.93;;;10.50;99.90;;;;;;5024728;28;20028;-72
2022/05/08 02:18:51;;;;;;;17.02;13.05;;;10.40;99.90;;;;;;5028753;28;20021;-72
2022/05/08 02:21:32;;;;;;;18.83;13.13;;;10.40;99.90;;;;;;5028545;28;20052;-72
2022/05/08 02:23:57;;;;;;;16.30;12.38;;;10.30;99.90;;;;;;5024511;28;20026;-72
2022/05/08 02:26:23;;;;;;;22.20;14.02;;;10.20;99.90;;;;;;5030497;28;20394;-71
2022/05/08 02:28:48;;;;;;;15.73;13.25;;;10.20;99.90;;;;;;5028286;28;20025;-71
2022/05/08 02:31:17;;;;;;;24.02;14.80;;;10.20;99.90;;;;;;5028060;28;20045;-72
2022/05/08 02:33:48;;;;;;;20.58;12.13;;;10.10;99.90;;;;;;5029339;28;20030;-72
2022/05/08 02:36:14;;;;;;;18.25;11.80;;;10.10;99.90;;;;;;5027024;28;20041;-72
2022/05/08 02:38:42;;;;;;;15.80;11.52;;;10.10;99.90;;;;;;5029607;28;20025;-72
2022/05/08 02:41:11;;;;;;;15.30;10.43;;;10.10;99.90;;;;;;5026427;28;20079;-72
2022/05/08 02:43:39;;;;;;;13.88;10.98;;;10.10;99.90;;;;;;5029672;28;20037;-72
2022/05/08 02:46:08;;;;;;;14.73;11.60;;;10.10;99.90;;;;;;5026438;28;20056;-72
2022/05/08 02:48:33;;;;;;;14.25;10.57;;;10.10;99.90;;;;;;5028144;28;20044;-71
2022/05/08 02:50:59;;;;;;;14.00;9.73;;;10.10;99.90;;;;;;5028642;28;20025;-71
2022/05/08 02:53:25;;;;;;;14.73;10.07;;;10.00;99.90;;;;;;5026104;28;20074;-71
2022/05/08 02:58:34;;;;;;;14.68;10.27;;;10.00;99.90;;;;;;5022754;28;20028;-72
2022/05/08 03:01:07;;;;;;;13.20;9.68;;;10.00;99.90;;;;;;5026838;28;20037;-72
2022/05/08 03:03:34;;;;;;;14.23;10.20;;;9.90;99.90;;;;;;5028430;28;20094;-72
2022/05/08 03:05:59;;;;;;;13.10;9.65;;;9.90;99.90;;;;;;5026293;28;20029;-72
2022/05/08 03:08:34;;;;;;;13.40;10.18;;;9.90;99.90;;;;;;5026230;28;20026;-72
2022/05/08 03:13:44;;;;;;;21.90;10.50;;;9.90;99.90;;;;;;5025737;28;20506;-72
2022/05/08 03:16:17;;;;;;;13.43;9.57;;;9.90;99.90;;;;;;5029175;28;20033;-72
2022/05/08 03:18:44;;;;;;;12.57;9.50;;;9.90;99.90;;;;;;5024824;28;20029;-72
2022/05/08 03:21:12;;;;;;;14.13;9.65;;;9.90;99.90;;;;;;5025789;28;20437;-71
2022/05/08 03:23:39;;;;;;;13.10;9.20;;;9.80;99.90;;;;;;5029289;28;20573;-71
2022/05/08 03:26:06;;;;;;;12.68;9.55;;;9.70;99.90;;;;;;5027655;28;20028;-71
2022/05/08 03:28:38;;;;;;;12.75;9.18;;;9.70;99.90;;;;;;5028815;28;20087;-71
2022/05/08 03:31:04;;;;;;;13.25;8.65;;;9.70;99.90;;;;;;5031620;28;20021;-72
2022/05/08 03:33:34;;;;;;;12.57;8.98;;;9.70;99.90;;;;;;5030319;28;20590;-71
2022/05/08 03:36:03;;;;;;;13.55;9.93;;;9.70;99.90;;;;;;5034769;28;20029;-71
2022/05/08 03:38:30;;;;;;;11.90;8.80;;;9.70;99.90;;;;;;5031749;28;20053;-71
2022/05/08 03:40:56;;;;;;;12.35;9.05;;;9.70;99.90;;;;;;5033773;28;20029;-71
2022/05/08 03:43:28;;;;;;;12.00;9.10;;;9.70;99.90;;;;;;5031653;28;20033;-71
2022/05/08 03:45:57;;;;;;;11.07;7.85;;;9.70;99.90;;;;;;5027755;28;20425;-72
2022/05/08 03:48:22;;;;;;;11.38;8.88;;;9.70;99.90;;;;;;5030007;28;20394;-72
2022/05/08 03:50:58;;;;;;;11.45;8.77;;;9.70;99.90;;;;;;5036635;28;20087;-71
2022/05/08 03:53:26;;;;;;;11.40;8.80;;;9.70;99.90;;;;;;5031504;28;20025;-71
2022/05/08 03:55:55;;;;;;;12.60;8.73;;;9.80;99.90;;;;;;5035960;28;20025;-72
2022/05/08 03:58:23;;;;;;;11.70;8.88;;;9.70;99.90;;;;;;5033150;28;20120;-71
2022/05/08 04:00:49;;;;;;;11.73;9.10;;;9.80;99.90;;;;;;5030180;28;20535;-71
2022/05/08 04:03:21;;;;;;;10.90;8.48;;;9.80;99.90;;;;;;5032977;28;20152;-70
2022/05/08 04:06:03;;;;;;;13.93;10.00;;;9.80;99.90;;;;;;5031575;28;20025;-70
2022/05/08 04:08:33;;;;;;;11.07;8.35;;;9.80;99.90;;;;;;5028306;28;20495;-70
2022/05/08 04:11:04;;;;;;;11.07;9.30;;;9.80;99.90;;;;;;5031492;28;20382;-70
2022/05/08 04:13:30;;;;;;;12.23;9.40;;;9.80;99.90;;;;;;5029737;28;20402;-70
2022/05/08 04:18:40;;;;;;;;;;;9.80;99.90;;;;;;5028439;28;20044;-70
2022/05/08 04:21:11;;;;;;;14.63;8.95;;;9.80;99.90;;;;;;5028253;28;20413;-70
2022/05/08 04:26:29;;;;;;;14.77;10.52;;;9.70;99.90;;;;;;5020532;28;20083;-70
2022/05/08 04:28:54;;;;;;;16.70;11.88;;;9.80;99.90;;;;;;5032455;28;20033;-70
2022/05/08 04:31:23;;;;;;;15.85;12.23;;;9.80;99.90;;;;;;5027445;28;20026;-70
2022/05/08 04:33:49;;;;;;;16.45;12.45;;;9.70;99.90;;;;;;5035767;28;20084;-70
2022/05/08 04:36:14;;;;;;;17.88;12.90;;;9.80;99.90;;;;;;5028790;28;20414;-71
2022/05/08 04:38:49;;;;;;;17.50;12.45;;;9.80;99.90;;;;;;5029215;28;20045;-70
2022/05/08 04:41:15;;;;;;;17.00;12.05;;;9.80;99.90;;;;;;5030787;28;20033;-70
2022/05/08 04:43:41;;;;;;;19.70;14.43;;;9.80;99.90;;;;;;5028178;28;20492;-70
2022/05/08 04:46:13;;;;;;;20.55;13.65;;;9.80;99.90;;;;;;5025463;28;20029;-70
2022/05/08 04:48:41;;;;;;;18.55;13.13;;;9.80;99.90;;;;;;5033149;28;20409;-70
2022/05/08 04:51:13;;;;;;;18.95;13.50;;;9.80;99.90;;;;;;5027151;28;20426;-71
2022/05/08 04:53:39;;;;;;;19.38;13.52;;;9.80;99.90;;;;;;5031608;28;20093;-71
2022/05/08 04:56:04;;;;;;;18.95;13.40;;;9.70;99.90;;;;;;5030821;28;20109;-71
2022/05/08 04:58:31;;;;;;;18.30;13.32;;;9.80;99.90;;;;;;5031296;28;20494;-71
2022/05/08 05:00:59;;;;;;;17.42;14.15;;;9.80;99.90;;;;;;5030248;28;20517;-71
2022/05/08 05:03:25;;;;;;;18.70;12.95;;;9.80;99.90;;;;;;5027898;28;20021;-70
2022/05/08 05:05:51;;;;;;;18.90;14.05;;;9.80;99.90;;;;;;5028590;28;20091;-71
2022/05/08 05:08:18;;;;;;;20.05;13.25;;;9.80;99.90;;;;;;5029729;28;20033;-70
2022/05/08 05:10:44;;;;;;;20.38;14.02;;;9.70;99.90;;;;;;5032285;28;20025;-71
2022/05/08 05:13:12;;;;;;;21.95;15.10;;;9.70;99.90;;;;;;5029699;28;20155;-71
2022/05/08 05:15:44;;;;;;;21.33;14.13;;;9.80;99.90;;;;;;5030071;28;20506;-72
2022/05/08 05:18:13;;;;;;;19.65;14.63;;;9.70;99.90;;;;;;5029470;28;20025;-72
2022/05/08 05:20:38;;;;;;;21.23;14.35;;;9.70;99.90;;;;;;5028716;28;20030;-72
2022/05/08 05:23:10;;;;;;;21.67;14.30;;;9.70;99.90;;;;;;5025931;28;20026;-72
2022/05/08 05:25:36;;;;;;;21.85;15.55;;;9.70;99.90;;;;;;5028815;28;20031;-72
2022/05/08 05:28:01;;;;;;;19.85;14.63;;;9.80;99.90;;;;;;5026240;28;20071;-71
2022/05/08 05:30:27;;;;;;;19.23;14.77;;;9.80;99.90;;;;;;5031392;28;20029;-71
2022/05/08 05:32:56;;;;;;;22.23;14.95;;;9.80;99.90;;;;;;5032821;28;20029;-71
2022/05/08 05:35:21;;;;;;;21.30;14.15;;;9.90;99.90;;;;;;5028485;28;20472;-72
2022/05/08 05:37:47;;;;;;;19.52;14.70;;;10.00;99.90;;;;;;5031159;28;20082;-71
2022/05/08 05:40:12;;;;;;;19.48;14.80;;;10.10;99.90;;;;;;5031410;28;20032;-71
2022/05/08 05:42:41;;;;;;;23.15;15.18;;;10.10;99.90;;;;;;5032811;28;20037;-72
2022/05/08 05:45:09;;;;;;;19.52;14.32;;;10.20;99.90;;;;;;5023505;28;20036;-72
2022/05/08 05:47:50;;;;;;;20.40;14.45;;;10.20;99.90;;;;;;5026541;28;20049;-72
2022/05/08 05:50:24;;;;;;;20.25;13.70;;;10.30;99.90;;;;;;5029363;28;20075;-71
2022/05/08 05:52:51;;;;;;;18.52;13.68;;;10.30;99.90;;;;;;5044805;28;20033;-71
2022/05/08 05:55:22;;;;;;;22.60;14.13;;;10.40;99.90;;;;;;5025354;28;20030;-71
2022/05/08 05:57:48;;;;;;;17.23;13.52;;;10.40;99.90;;;;;;5028204;28;20033;-73
2022/05/08 06:00:16;;;;;;;17.75;12.93;;;10.50;99.90;;;;;;5027695;28;20398;-70
2022/05/08 06:02:43;;;;;;;18.48;14.15;;;10.60;99.90;;;;;;5021393;28;20029;-73
2022/05/08 06:05:14;;;;;;;19.05;13.63;;;10.70;99.90;;;;;;5017313;28;20088;-72
2022/05/08 06:07:41;;;;;;;20.25;14.20;;;10.80;99.90;;;;;;5019496;28;20156;-72
2022/05/08 06:10:08;;;;;;;19.15;14.18;;;10.90;99.90;;;;;;5028051;28;20022;-72
2022/05/08 06:12:34;;;;;;;20.73;14.65;;;11.00;99.90;;;;;;5022032;28;20034;-71
2022/05/08 06:15:00;;;;;;;17.48;13.43;;;11.00;99.90;;;;;;5026585;28;20079;-71
2022/05/08 06:17:26;;;;;;;17.88;13.32;;;11.10;99.90;;;;;;5022046;28;20693;-71
2022/05/08 06:19:52;;;;;;;19.65;13.75;;;11.20;99.90;;;;;;5027666;28;20029;-71
2022/05/08 06:22:18;;;;;;;17.08;12.45;;;11.30;99.90;;;;;;5027350;28;20056;-72
2022/05/08 06:24:43;;;;;;;17.50;13.52;;;11.40;99.90;;;;;;5029556;28;20033;-72
2022/05/08 06:27:10;;;;;;;17.45;13.80;;;11.50;99.90;;;;;;5026125;28;20695;-73
2022/05/08 06:29:36;;;;;;;18.17;13.43;;;11.60;99.90;;;;;;5025425;28;20025;-72
2022/05/08 06:32:02;;;;;;;18.83;13.95;;;11.70;99.90;;;;;;5024789;28;20021;-72
2022/05/08 06:34:28;;;;;;;17.83;13.02;;;11.90;99.90;;;;;;5028137;28;20399;-72
2022/05/08 06:36:54;;;;;;;16.27;13.10;;;12.00;99.90;;;;;;5027495;28;20085;-72
2022/05/08 06:39:20;;;;;;;19.15;14.90;;;12.00;99.90;;;;;;5018872;28;20033;-73
2022/05/08 06:41:52;;;;;;;16.95;13.68;;;12.10;99.90;;;;;;5018144;28;20671;-72
2022/05/08 06:44:18;;;;;;;18.60;14.60;;;12.20;99.90;;;;;;5022900;28;20029;-72
2022/05/08 06:46:43;;;;;;;19.27;14.82;;;12.30;99.90;;;;;;5038219;28;20026;-72
2022/05/08 06:49:09;;;;;;;22.10;15.18;;;12.40;99.90;;;;;;5026566;28;20360;-72
2022/05/08 06:51:35;;;;;;;17.40;12.65;;;12.70;99.90;;;;;;5027660;28;20029;-72
2022/05/08 06:54:01;;;;;;;20.33;14.10;;;12.80;99.90;;;;;;5020777;28;20026;-72
2022/05/08 06:56:30;;;;;;;17.50;12.60;;;12.80;99.90;;;;;;5028811;28;20021;-72
2022/05/08 07:01:42;;;;;;;;;;;13.10;99.90;;;;;;5028552;28;20196;-72
2022/05/08 07:04:10;;;;;;;17.20;12.63;;;13.30;99.90;;;;;;5028497;28;19976;-71
2022/05/08 07:06:37;;;;;;;14.68;12.27;;;13.40;99.90;;;;;;5033387;28;20025;-72
2022/05/08 07:09:07;;;;;;;17.15;11.75;;;13.70;99.90;;;;;;5029228;28;20490;-72
2022/05/08 07:11:33;;;;;;;16.85;12.55;;;13.80;99.90;;;;;;5032004;28;20033;-72
2022/05/08 07:14:02;;;;;;;16.05;12.75;;;13.80;99.90;;;;;;5030017;28;20125;-70
2022/05/08 07:16:28;;;;;;;16.63;11.85;;;14.00;99.90;;;;;;5027865;28;20046;-71
2022/05/08 07:18:54;;;;;;;15.30;11.45;;;14.10;99.90;;;;;;5025993;28;20037;-71
2022/05/08 07:21:28;;;;;;;15.27;11.57;;;14.30;99.90;;;;;;5029769;28;20033;-71
2022/05/08 07:23:55;;;;;;;14.30;10.65;;;14.60;99.90;;;;;;5029083;28;20490;-71
2022/05/08 07:26:20;;;;;;;14.77;11.65;;;14.50;99.90;;;;;;5028047;28;20029;-70
2022/05/08 07:28:46;;;;;;;13.75;11.32;;;14.50;99.90;;;;;;5025043;28;20433;-71
2022/05/08 07:31:12;;;;;;;15.60;11.90;;;14.60;99.90;;;;;;5016400;28;20128;-70
2022/05/08 07:33:38;;;;;;;17.02;12.13;;;14.80;99.90;;;;;;5033256;28;20508;-70
2022/05/08 07:36:14;;;;;;;16.58;11.00;;;15.00;99.90;;;;;;5014462;28;20022;-69
2022/05/08 07:38:40;;;;;;;13.85;10.75;;;15.10;99.90;;;;;;5008915;28;20224;-70
2022/05/08 07:41:06;;;;;;;15.70;10.95;;;15.30;99.90;;;;;;5034323;28;20544;-71
2022/05/08 07:43:32;;;;;;;14.05;11.60;;;15.40;99.90;;;;;;5014996;28;20030;-71
2022/05/08 07:45:58;;;;;;;14.60;11.05;;;15.50;99.90;;;;;;5023527;28;20492;-72
2022/05/08 07:48:24;;;;;;;17.90;11.02;;;15.70;99.90;;;;;;5028962;28;21680;-71
2022/05/08 07:50:50;;;;;;;13.23;10.57;;;15.70;99.90;;;;;;5021496;28;20036;-71
2022/05/08 07:53:15;;;;;;;13.85;10.50;;;15.80;99.90;;;;;;5021617;28;20029;-70
2022/05/08 07:55:41;;;;;;;16.42;10.27;;;15.90;99.90;;;;;;5025392;28;20025;-71
2022/05/08 07:58:08;;;;;;;13.63;11.20;;;15.90;99.90;;;;;;5026204;28;20406;-71
2022/05/08 08:00:36;;;;;;;12.95;10.57;;;15.90;99.90;;;;;;5024306;28;20021;-71
2022/05/08 08:03:02;;;;;;;13.80;9.23;;;16.00;99.90;;;;;;5027975;28;20053;-70
2022/05/08 08:05:28;;;;;;;11.90;9.50;;;16.10;99.90;;;;;;5027151;28;20028;-71
2022/05/08 08:07:54;;;;;;;13.18;10.20;;;16.00;99.90;;;;;;5029429;28;20053;-73
2022/05/08 08:10:19;;;;;;;14.43;10.38;;;16.10;99.90;;;;;;5030277;28;20061;-71
2022/05/08 08:12:45;;;;;;;13.45;9.90;;;16.10;99.90;;;;;;5025578;28;20112;-70
2022/05/08 08:15:11;;;;;;;13.48;9.73;;;16.30;99.90;;;;;;5029878;28;20029;-71
2022/05/08 08:17:36;;;;;;;12.60;9.75;;;16.40;99.90;;;;;;5044547;28;20036;-71
2022/05/08 08:20:03;;;;;;;12.90;10.02;;;16.50;99.90;;;;;;5029162;28;20086;-73
2022/05/08 08:22:28;;;;;;;13.70;10.65;;;16.50;99.90;;;;;;5028455;28;20037;-73
2022/05/08 08:24:55;;;;;;;16.50;11.52;;;16.40;99.90;;;;;;5025698;28;20026;-71
2022/05/08 08:27:20;;;;;;;12.70;10.15;;;16.50;99.90;;;;;;5028501;28;20029;-72
2022/05/08 08:29:47;;;;;;;19.73;11.90;;;16.50;99.90;;;;;;5029679;28;20029;-72
2022/05/08 08:32:13;;;;;;;15.18;11.95;;;16.50;99.90;;;;;;5022634;28;20909;-72
2022/05/08 08:34:39;;;;;;;15.32;11.30;;;16.50;99.90;;;;;;5031481;28;20029;-71
2022/05/08 08:37:04;;;;;;;15.02;10.68;;;16.40;99.90;;;;;;5027873;28;20060;-71
2022/05/08 08:39:30;;;;;;;15.30;10.85;;;16.60;99.90;;;;;;5024760;28;20510;-70
2022/05/08 08:42:28;;;;;;;17.48;12.50;;;16.70;99.90;;;;;;5030655;28;20081;-72
2022/05/08 08:48:06;;;;;;;18.38;11.95;;;16.50;99.90;;;;;;5023404;28;20086;-71
2022/05/08 08:50:32;;;;;;;14.38;11.10;;;16.50;99.90;;;;;;5025834;28;20076;-72
2022/05/08 08:53:01;;;;;;;13.73;11.73;;;16.70;99.90;;;;;;5033652;28;20828;-73
2022/05/08 08:55:27;;;;;;;15.57;11.93;;;16.80;99.90;;;;;;5031478;28;20486;-72
2022/05/08 08:57:53;;;;;;;14.50;10.68;;;16.80;99.90;;;;;;5031085;28;20035;-69
2022/05/08 09:00:20;;;;;;;14.70;10.48;;;16.70;99.90;;;;;;5029091;28;20030;-72
2022/05/08 09:02:48;;;;;;;14.27;10.85;;;16.80;99.90;;;;;;5022539;28;20037;-73
2022/05/08 09:05:14;;;;;;;14.10;10.52;;;16.80;99.90;;;;;;5019398;28;20133;-73
2022/05/08 09:07:52;;;;;;;14.88;10.40;;;16.80;99.90;;;;;;5021213;28;20025;-71
2022/05/08 09:10:19;;;;;;;14.18;11.27;;;16.80;99.90;;;;;;5033983;28;20072;-74
2022/05/08 09:13:02;;;;;;;12.55;10.30;;;16.70;99.90;;;;;;5024192;28;20028;-70
2022/05/08 09:15:34;;;;;;;12.07;10.02;;;16.80;99.90;;;;;;5042703;28;20025;-72
2022/05/08 09:18:00;;;;;;;11.88;9.77;;;16.90;99.90;;;;;;5032506;28;20033;-70
2022/05/08 09:20:31;;;;;;;14.20;9.80;;;17.00;99.90;;;;;;5051413;28;20043;-72
2022/05/08 09:23:11;;;;;;;14.02;9.07;;;17.20;99.90;;;;;;5026183;28;20033;-73
2022/05/08 09:26:02;;;;;;;11.38;9.27;;;17.40;99.90;;;;;;5029022;28;20052;-71
2022/05/08 09:28:30;;;;;;;13.55;8.60;;;17.40;99.90;;;;;;5030762;28;20037;-73
2022/05/08 09:31:08;;;;;;;12.27;9.00;;;17.60;99.90;;;;;;5031442;28;20077;-73
2022/05/08 09:33:44;;;;;;;12.43;7.88;;;17.70;99.90;;;;;;5025178;28;20037;-71
2022/05/08 09:36:12;;;;;;;10.68;8.52;;;17.70;99.90;;;;;;5027800;28;20398;-72
2022/05/08 09:38:41;;;;;;;12.63;8.23;;;17.80;99.90;;;;;;5027096;28;20040;-72
2022/05/08 09:41:07;;;;;;;12.30;8.27;;;17.70;99.90;;;;;;5024714;28;20029;-72
2022/05/08 09:43:34;;;;;;;13.80;8.52;;;17.70;99.90;;;;;;5028983;28;20029;-73
2022/05/08 09:46:01;;;;;;;11.30;8.57;;;17.70;99.90;;;;;;5018805;28;20025;-72
2022/05/08 09:48:28;;;;;;;11.93;8.07;;;17.70;99.90;;;;;;5021354;28;20406;-72
2022/05/08 09:51:00;;;;;;;11.77;8.23;;;17.70;99.90;;;;;;5027877;28;20470;-72
2022/05/08 09:53:26;;;;;;;10.65;7.57;;;17.80;99.90;;;;;;5028728;28;20025;-72
2022/05/08 09:55:53;;;;;;;11.40;7.80;;;17.80;99.90;;;;;;5030041;28;20013;-72
2022/05/08 09:58:20;;;;;;;12.32;9.80;;;17.80;99.90;;;;;;5026624;28;20029;-72
2022/05/08 10:00:47;;;;;;;15.30;8.25;;;17.90;99.90;;;;;;5026228;28;20067;-71
2022/05/08 10:03:15;;;;;;;13.55;8.38;;;18.00;99.90;;;;;;5030025;28;20326;-73
2022/05/08 10:05:42;;;;;;;10.32;7.70;;;18.20;99.90;;;;;;5027876;28;20022;-72
2022/05/08 10:08:09;;;;;;;13.95;8.82;;;18.20;99.90;;;;;;5031676;28;20082;-72
2022/05/08 10:13:57;;;;;;;13.90;9.27;;;18.30;99.90;;;;;;5024631;28;20151;-73
2022/05/08 10:16:41;;;;;;;12.90;9.90;;;18.40;99.90;;;;;;5030576;28;20033;-72
2022/05/08 10:19:22;;;;;;;10.45;8.65;;;18.40;99.90;;;;;;5026288;28;20357;-72
2022/05/08 10:22:06;;;;;;;10.00;7.20;;;18.50;99.90;;;;;;5019473;28;20076;-72
2022/05/08 10:24:33;;;;;;;13.90;8.57;;;18.50;99.90;;;;;;5025425;28;20506;-72
2022/05/08 10:27:11;;;;;;;11.43;8.50;;;18.50;99.90;;;;;;5024063;28;20096;-70
2022/05/08 10:29:38;;;;;;;9.73;7.57;;;18.60;99.90;;;;;;5022545;28;20025;-71
2022/05/08 10:32:06;;;;;;;10.63;7.70;;;18.50;99.90;;;;;;5018754;28;25790;-72
2022/05/08 10:34:37;;;;;;;9.23;6.97;;;18.60;99.70;;;;;;5025828;28;20029;-70
2022/05/08 10:37:14;;;;;;;10.60;7.78;;;18.50;99.80;;;;;;5022414;28;20091;-72
2022/05/08 10:39:41;;;;;;;10.38;6.88;;;18.50;99.90;;;;;;5018818;28;20038;-71
2022/05/08 10:45:00;;;;;;;13.00;7.82;;;18.60;99.90;;;;;;5024183;28;20033;-72
2022/05/08 10:47:40;;;;;;;11.93;7.72;;;18.60;99.80;;;;;;5024257;28;20037;-71
2022/05/08 10:50:08;;;;;;;12.23;7.65;;;18.60;99.90;;;;;;5025689;28;20022;-72
2022/05/08 10:52:45;;;;;;;12.23;8.40;;;18.60;99.80;;;;;;5028314;28;20018;-72
2022/05/08 10:55:15;;;;;;;15.95;9.43;;;18.50;99.80;;;;;;5031104;28;20017;-72
2022/05/08 10:57:46;;;;;;;10.52;7.82;;;18.50;99.80;;;;;;5028314;28;20084;-70
2022/05/08 11:00:16;;;;;;;10.93;7.82;;;18.60;99.90;;;;;;5027067;28;20030;-71
2022/05/08 11:02:51;;;;;;;13.65;8.82;;;18.50;99.80;;;;;;5029785;28;20080;-71
2022/05/08 11:05:21;;;;;;;17.45;9.27;;;18.50;99.80;;;;;;5049879;28;20034;-73
2022/05/08 11:07:50;;;;;;;12.15;8.30;;;18.60;99.90;;;;;;5027462;28;20029;-72
2022/05/08 11:10:23;;;;;;;14.27;8.43;;;18.60;99.70;;;;;;5027484;28;20078;-70
2022/05/08 11:12:55;;;;;;;8.02;7.03;;;18.60;99.70;;;;;;5028435;28;20028;-73
2022/05/08 11:15:22;;;;;;;10.88;7.97;;;18.70;99.80;;;;;;5033284;28;20113;-73
2022/05/08 11:18:07;;;;;;;9.68;7.32;;;18.80;99.70;;;;;;5025287;28;20033;-72
2022/05/08 11:20:36;;;;;;;13.82;8.05;;;18.70;99.50;;;;;;5024971;28;20473;-73
2022/05/08 11:23:04;;;;;;;11.90;8.60;;;18.80;99.50;;;;;;5027789;28;20106;-71
2022/05/08 11:25:30;;;;;;;12.38;7.70;;;18.90;99.70;;;;;;5028322;28;20036;-73
2022/05/08 11:27:56;;;;;;;13.40;9.48;;;19.00;99.30;;;;;;5035866;28;20024;-72
2022/05/08 11:30:34;;;;;;;13.38;7.82;;;19.00;99.10;;;;;;5031634;28;20437;-73
2022/05/08 11:36:04;;;;;;;13.10;8.93;;;19.20;98.60;;;;;;5022753;28;20028;-72
2022/05/08 11:38:41;;;;;;;8.82;6.88;;;19.10;98.50;;;;;;5018589;28;20034;-72
2022/05/08 11:41:27;;;;;;;10.05;7.07;;;19.20;98.10;;;;;;5021327;28;20025;-71
2022/05/08 11:43:54;;;;;;;8.93;6.10;;;19.30;98.20;;;;;;5028479;28;20026;-70
2022/05/08 11:46:32;;;;;;;14.13;8.38;;;19.30;97.70;;;;;;5027221;28;20041;-72
2022/05/08 11:49:11;;;;;;;8.13;6.22;;;19.40;97.70;;;;;;5045006;28;20040;-72
2022/05/08 11:51:41;;;;;;;7.65;6.68;;;19.40;97.40;;;;;;5025140;28;20044;-72
2022/05/08 11:54:17;;;;;;;7.35;6.45;;;19.60;97.30;;;;;;5012467;28;20017;-72
2022/05/08 11:56:42;;;;;;;11.23;6.53;;;19.60;97.10;;;;;;5026348;28;20033;-72
2022/05/08 11:59:20;;;;;;;12.32;6.60;;;19.70;97.00;;;;;;5021463;28;20025;-73
2022/05/08 12:01:54;;;;;;;11.60;6.85;;;19.80;96.60;;;;;;5022119;28;20029;-72
2022/05/08 12:04:20;;;;;;;8.70;6.10;;;19.90;96.40;;;;;;5021316;28;20038;-71
2022/05/08 12:07:18;;;;;;;8.02;6.28;;;20.10;96.10;;;;;;5024269;28;20028;-71
2022/05/08 12:09:47;;;;;;;9.63;6.07;;;20.30;95.10;;;;;;4980717;28;20036;-70
2022/05/08 12:12:33;;;;;;;9.20;6.00;;;20.30;94.90;;;;;;5025469;28;20104;-72
2022/05/08 12:15:08;;;;;;;8.93;4.88;;;20.40;94.30;;;;;;5023727;28;21838;-72
2022/05/08 12:17:39;;;;;;;7.22;5.28;;;20.50;93.70;;;;;;5046043;28;20022;-72
2022/05/08 12:20:17;;;;;;;7.38;4.50;;;20.50;93.40;;;;;;5025408;28;20037;-72
2022/05/08 12:23:03;;;;;;;13.18;4.95;;;20.50;93.10;;;;;;5026725;28;20491;-72
2022/05/08 12:25:29;;;;;;;7.25;4.82;;;20.40;93.20;;;;;;5025742;28;20034;-73
2022/05/08 12:27:55;;;;;;;5.88;4.53;;;20.60;93.10;;;;;;5027366;28;20120;-72
2022/05/08 12:30:24;;;;;;;9.20;5.50;;;20.70;92.50;;;;;;5028316;28;20112;-71
2022/05/08 12:32:49;;;;;;;8.23;5.00;;;20.60;91.70;;;;;;5030478;28;20021;-70
2022/05/08 12:35:15;;;;;;;9.90;4.88;;;20.50;91.30;;;;;;5024446;28;20025;-71
2022/05/08 12:37:41;;;;;;;5.38;4.53;;;20.30;91.80;;;;;;5031516;28;20037;-72
2022/05/08 12:40:08;;;;;;;4.70;3.38;;;20.20;92.30;;;;;;5021219;28;20113;-72
2022/05/08 12:42:34;;;;;;;3.85;3.45;;;20.00;90.80;;;;;;5024759;28;20029;-71
2022/05/08 12:45:00;;;;;;;6.75;3.75;;;19.70;90.10;;;;;;5025326;28;20500;-70
2022/05/08 12:47:31;;;;;;;4.47;3.83;;;19.60;90.50;;;;;;5026502;28;20499;-70
2022/05/08 12:50:00;;;;;;;6.93;4.50;;;19.40;91.00;;;;;;5026564;28;20397;-70
2022/05/08 12:52:26;;;;;;;5.28;3.75;;;19.30;91.30;;;;;;5039054;28;20402;-70
2022/05/08 12:54:51;;;;;;;4.80;3.53;;;19.20;91.40;;;;;;5020409;28;20025;-71
2022/05/08 13:00:04;;;;;;;4.50;3.70;;;19.30;91.10;;;;;;5031470;28;20086;-71
2022/05/08 13:02:29;;;;;;;4.07;3.33;;;19.40;91.00;;;;;;5016567;28;20041;-72
2022/05/08 13:04:55;;;;;;;4.65;3.72;;;19.50;90.90;;;;;;5025996;28;20071;-72
2022/05/08 13:07:21;;;;;;;6.20;4.00;;;19.60;90.80;;;;;;5021118;28;20161;-69
2022/05/08 13:09:47;;;;;;;4.93;3.47;;;19.70;90.00;;;;;;5016242;28;20052;-70
2022/05/08 13:12:13;;;;;;;5.20;3.10;;;19.90;90.00;;;;;;5028447;22;20029;-75
2022/05/08 13:14:39;;;;;;;5.40;3.70;;;20.00;89.10;;;;;;5054091;28;20050;-76